Time;durP1;ratioP1;P1;durP2;ratioP2;P2;SDS_P1;SDS_P2;PMS_P1;PMS_P2;Temp;Humidity;BMP_temperature;BMP_pressure;BME280_temperature;BME280_humidity;BME280_pressure;Samples;Min_cycle;Max_cycle;Signal;HPM_P1;HPM_P2
2023/02/28 00:00:11;;;;;;;33.00;11.50;;;;;;;-1.35;69.77;102294.21;111136;1206;97684;-59
2023/02/28 00:02:38;;;;;;;35.00;11.70;;;;;;;-1.36;69.85;102299.61;111172;1206;140599;-59
2023/02/28 00:05:04;;;;;;;36.70;11.80;;;;;;;-1.39;69.95;102299.70;111178;1208;98795;-60
2023/02/28 00:07:31;;;;;;;29.50;11.90;;;;;;;-1.41;70.13;102301.39;111159;1208;97597;-60
2023/02/28 00:09:57;;;;;;;28.00;12.20;;;;;;;-1.44;69.98;102300.77;111089;1208;139360;-60
2023/02/28 00:12:22;;;;;;;30.70;11.90;;;;;;;-1.48;70.23;102303.44;111089;1209;98307;-60
2023/02/28 00:14:48;;;;;;;36.60;13.10;;;;;;;-1.50;70.16;102303.89;111078;1205;140038;-60
2023/02/28 00:17:14;;;;;;;42.90;13.20;;;;;;;-1.51;70.08;102300.86;111288;1206;106018;-60
2023/02/28 00:19:39;;;;;;;39.40;13.00;;;;;;;-1.52;70.26;102300.33;111074;1219;97120;-60
2023/02/28 00:22:05;;;;;;;46.40;14.10;;;;;;;-1.53;70.01;102297.66;111234;1208;97622;-60
2023/02/28 00:24:30;;;;;;;30.70;11.80;;;;;;;-1.53;70.38;102299.05;111011;1206;97641;-60
2023/02/28 00:26:55;;;;;;;38.30;13.50;;;;;;;-1.55;70.37;102294.09;110950;1206;140301;-60
2023/02/28 00:29:21;;;;;;;41.70;12.80;;;;;;;-1.56;70.41;102303.16;111174;1209;97741;-60
2023/02/28 00:31:46;;;;;;;48.00;13.70;;;;;;;-1.57;70.42;102300.50;111024;1206;138986;-59
2023/02/28 00:34:11;;;;;;;37.60;13.20;;;;;;;-1.58;70.52;102296.42;111166;1206;97681;-59
2023/02/28 00:36:37;;;;;;;43.10;15.30;;;;;;;-1.58;70.40;102296.59;111075;1209;97668;-59
2023/02/28 00:39:03;;;;;;;53.10;16.00;;;;;;;-1.59;70.52;102299.02;111059;1206;140481;-60
2023/02/28 00:41:28;;;;;;;40.10;14.60;;;;;;;-1.59;70.54;102304.64;111211;1208;97684;-60
2023/02/28 00:43:53;;;;;;;45.20;12.70;;;;;;;-1.61;70.53;102303.70;111005;1206;138961;-60
2023/02/28 00:46:19;;;;;;;41.90;14.20;;;;;;;-1.61;70.80;102300.88;111195;1208;99115;-59
2023/02/28 00:48:44;;;;;;;32.40;12.30;;;;;;;-1.62;70.51;102296.13;110988;1208;97571;-60
2023/02/28 00:51:09;;;;;;;40.70;14.00;;;;;;;-1.61;70.73;102299.83;111130;1208;138787;-60
2023/02/28 00:53:34;;;;;;;33.20;12.60;;;;;;;-1.61;70.78;102297.05;111091;1208;97673;-60
2023/02/28 00:56:00;;;;;;;30.90;11.80;;;;;;;-1.61;70.58;102303.90;111055;1206;140465;-60
2023/02/28 00:58:26;;;;;;;30.30;10.50;;;;;;;-1.61;70.86;102303.17;111184;1209;98040;-59
2023/02/28 01:00:52;;;;;;;35.80;12.70;;;;;;;-1.62;70.88;102301.23;111042;1208;97738;-60
2023/02/28 01:03:19;;;;;;;40.60;13.30;;;;;;;-1.62;70.87;102300.52;111121;1204;139550;-60
2023/02/28 01:05:45;;;;;;;46.50;15.40;;;;;;;-1.62;70.95;102301.04;111325;1206;97713;-59
2023/02/28 01:08:10;;;;;;;36.70;13.30;;;;;;;-1.63;70.80;102303.30;111105;1206;139840;-60
2023/02/28 01:10:36;;;;;;;40.50;13.90;;;;;;;-1.64;70.83;102304.50;111075;1208;97667;-60
2023/02/28 01:13:02;;;;;;;28.40;11.90;;;;;;;-1.65;71.03;102305.67;111156;1206;97545;-60
2023/02/28 01:15:28;;;;;;;38.30;13.40;;;;;;;-1.66;71.05;102303.02;111111;1206;141073;-60
2023/02/28 01:17:53;;;;;;;40.20;12.60;;;;;;;-1.67;71.18;102299.52;111422;1206;103288;-60
2023/02/28 01:20:19;;;;;;;32.10;12.80;;;;;;;-1.67;71.42;102297.36;111027;1208;139797;-60
2023/02/28 01:22:45;;;;;;;42.20;11.70;;;;;;;-1.70;71.41;102298.70;111093;1208;97676;-60
2023/02/28 01:25:10;;;;;;;37.00;12.10;;;;;;;-1.71;71.30;102296.55;111253;1207;97580;-59
2023/02/28 01:27:35;;;;;;;35.50;13.60;;;;;;;-1.72;71.31;102297.23;111090;1208;138786;-60
2023/02/28 01:30:02;;;;;;;34.70;12.00;;;;;;;-1.73;71.19;102292.45;111105;1209;97652;-60
2023/02/28 01:32:27;;;;;;;34.90;12.60;;;;;;;-1.75;71.29;102293.62;111062;1206;140950;-60
2023/02/28 01:34:52;;;;;;;30.70;11.40;;;;;;;-1.76;71.40;102293.04;111223;1206;99706;-61
2023/02/28 01:37:18;;;;;;;32.40;11.70;;;;;;;-1.78;71.39;102293.50;111108;1208;107911;-60
2023/02/28 01:39:43;;;;;;;36.00;12.60;;;;;;;-1.80;71.57;102296.25;110958;1206;139608;-60
2023/02/28 01:42:09;;;;;;;37.80;12.70;;;;;;;-1.81;71.57;102294.10;111230;1209;97652;-60
2023/02/28 01:45:18;;;;;;;44.70;11.80;;;;;;;-1.83;71.78;102292.80;111028;1208;138815;-60
2023/02/28 01:47:44;;;;;;;42.40;13.50;;;;;;;-1.85;71.54;102293.80;111021;1211;108363;-60
2023/02/28 01:50:16;;;;;;;33.40;11.10;;;;;;;-1.87;71.65;102291.96;111067;1206;139277;-61
2023/02/28 01:52:42;;;;;;;35.70;11.40;;;;;;;-1.90;71.82;102293.27;111111;1208;97678;-60
2023/02/28 01:55:11;;;;;;;41.10;12.70;;;;;;;-1.91;71.71;102292.04;111160;1206;97805;-61
2023/02/28 01:57:42;;;;;;;48.60;13.50;;;;;;;-1.91;71.88;102294.48;110989;1209;138658;-60
2023/02/28 02:00:13;;;;;;;38.40;13.10;;;;;;;-1.92;71.96;102289.70;111200;1209;108733;-61
2023/02/28 02:02:40;;;;;;;39.50;12.80;;;;;;;-1.95;71.81;102288.91;111024;1205;139814;-60
2023/02/28 02:05:17;;;;;;;38.70;12.00;;;;;;;-1.96;71.90;102285.36;111152;1209;97678;-60
2023/02/28 02:07:46;;;;;;;42.70;13.60;;;;;;;-1.99;71.90;102287.73;110960;1210;141323;-60
2023/02/28 02:10:16;;;;;;;46.40;13.00;;;;;;;-2.02;72.19;102285.17;111204;1211;100374;-61
2023/02/28 02:13:19;;;;;;;39.10;13.60;;;;;;;-2.05;71.95;102291.19;111043;1206;108375;-60
2023/02/28 02:16:26;;;;;;;45.90;14.20;;;;;;;-2.10;72.12;102285.41;110959;1206;141126;-61
2023/02/28 02:19:22;;;;;;;33.50;11.50;;;;;;;-2.14;72.11;102284.58;111145;1208;97578;-60
2023/02/28 02:22:02;;;;;;;30.60;10.90;;;;;;;-2.18;72.41;102285.49;110953;1208;141041;-60
2023/02/28 02:25:06;;;;;;;41.10;13.00;;;;;;;-2.21;72.46;102286.44;111110;1208;100559;-59
2023/02/28 02:27:53;;;;;;;37.30;11.70;;;;;;;-2.24;72.51;102288.77;111030;1206;140710;-59
2023/02/28 02:30:27;;;;;;;35.00;11.60;;;;;;;-2.26;72.27;102290.28;111159;1208;97809;-60
2023/02/28 02:33:29;;;;;;;41.90;12.30;;;;;;;-2.27;72.31;102288.33;111027;1213;140337;-59
2023/02/28 02:36:02;;;;;;;37.10;12.00;;;;;;;-2.27;72.23;102289.17;111085;1204;111812;-59
2023/02/28 02:38:37;;;;;;;25.80;10.80;;;;;;;-2.30;72.26;102287.00;110985;1208;140885;-60
2023/02/28 02:41:17;;;;;;;39.50;11.70;;;;;;;-2.33;72.23;102290.40;111301;1208;107820;-59
2023/02/28 02:43:52;;;;;;;31.80;10.70;;;;;;;-2.36;72.25;102285.02;110995;1206;140929;-59
2023/02/28 02:46:29;;;;;;;34.80;11.90;;;;;;;-2.39;72.36;102288.95;111192;1208;99091;-59
2023/02/28 02:48:57;;;;;;;28.20;10.70;;;;;;;-2.40;72.46;102284.35;111200;1206;111587;-59
2023/02/28 02:51:24;;;;;;;33.20;10.70;;;;;;;-2.42;72.46;102283.77;111087;1208;139482;-59
2023/02/28 02:53:57;;;;;;;28.30;10.20;;;;;;;-2.41;72.31;102282.58;111129;1206;97574;-60
2023/02/28 02:56:27;;;;;;;34.30;10.90;;;;;;;-2.40;72.54;102280.14;111323;1205;139534;-59
2023/02/28 02:58:59;;;;;;;25.70;9.40;;;;;;;-2.41;72.48;102280.33;111166;1206;97949;-59
2023/02/28 03:01:29;;;;;;;26.90;9.40;;;;;;;-2.40;72.60;102279.12;111128;1207;111582;-59
2023/02/28 03:04:01;;;;;;;38.90;10.40;;;;;;;-2.39;72.65;102283.00;111003;1224;138997;-59
2023/02/28 03:06:27;;;;;;;28.40;8.50;;;;;;;-2.38;72.73;102279.87;111212;1206;108517;-59
2023/02/28 03:08:52;;;;;;;34.40;10.20;;;;;;;-2.39;72.72;102276.37;111006;1213;140560;-60
2023/02/28 03:11:20;;;;;;;32.80;11.20;;;;;;;-2.38;73.10;102274.45;111240;1206;97661;-59
2023/02/28 03:14:04;;;;;;;26.30;10.70;;;;;;;-2.39;72.91;102277.58;110988;1206;140511;-59
2023/02/28 03:16:49;;;;;;;22.90;8.60;;;;;;;-2.39;72.79;102278.27;111105;1208;108023;-59
2023/02/28 03:19:36;;;;;;;24.40;9.20;;;;;;;-2.40;72.60;102281.04;111337;1208;97609;-60
2023/02/28 03:22:41;;;;;;;24.10;8.00;;;;;;;-2.41;72.88;102281.70;111006;1208;139484;-60
2023/02/28 03:25:20;;;;;;;32.80;9.40;;;;;;;-2.41;72.94;102283.29;111138;1209;111599;-60
2023/02/28 03:28:07;;;;;;;23.50;8.30;;;;;;;-2.40;72.73;102279.63;111021;1208;138681;-60
2023/02/28 03:30:41;;;;;;;27.20;9.50;;;;;;;-2.41;73.09;102279.95;111063;1208;107744;-60
2023/02/28 03:33:12;;;;;;;22.10;8.50;;;;;;;-2.42;72.82;102279.75;111008;1206;139061;-60
2023/02/28 03:35:40;;;;;;;;;;;;;;;-2.42;73.14;102285.50;111197;1206;97575;-61
2023/02/28 03:38:13;;;;;;;28.90;9.90;;;;;;;-2.44;73.24;102282.27;110974;1206;125686;-59
2023/02/28 03:40:45;;;;;;;26.30;9.60;;;;;;;-2.45;73.16;102283.29;110893;1206;100423;-60
2023/02/28 03:43:17;;;;;;;31.50;10.40;;;;;;;-2.46;73.03;102284.13;110987;1206;106178;-59
2023/02/28 03:45:45;;;;;;;27.50;10.10;;;;;;;-2.49;73.26;102286.48;110855;1210;140020;-61
2023/02/28 03:48:42;;;;;;;26.20;10.40;;;;;;;-2.52;73.45;102284.09;111011;1206;97458;-59
2023/02/28 03:51:12;;;;;;;33.00;11.00;;;;;;;-2.57;73.26;102283.92;110868;1210;139919;-60
2023/02/28 03:53:47;;;;;;;28.90;10.80;;;;;;;-2.60;73.01;102287.67;110953;1206;99698;-60
2023/02/28 03:56:31;;;;;;;37.40;12.30;;;;;;;-2.64;73.41;102287.73;110879;1210;139349;-60
2023/02/28 03:59:25;;;;;;;36.10;11.40;;;;;;;-2.68;73.32;102294.77;111027;1206;97711;-60
2023/02/28 04:01:51;;;;;;;30.30;10.70;;;;;;;-2.72;73.10;102291.27;110904;1222;140961;-60
2023/02/28 04:04:17;;;;;;;34.70;11.20;;;;;;;-2.77;73.40;102292.84;111167;1206;98229;-61
2023/02/28 04:06:45;;;;;;;38.30;13.00;;;;;;;-2.80;73.13;102295.18;110904;1206;97688;-61
2023/02/28 04:09:13;;;;;;;30.10;11.80;;;;;;;-2.81;73.41;102295.83;110873;1206;139036;-60
2023/02/28 04:11:41;;;;;;;45.20;12.10;;;;;;;-2.82;73.50;102299.66;111021;1219;97574;-61
2023/02/28 04:14:08;;;;;;;44.70;12.80;;;;;;;-2.82;73.62;102300.35;110981;1205;139004;-61
2023/02/28 04:16:36;;;;;;;34.80;12.70;;;;;;;-2.84;73.58;102300.95;111105;1206;97642;-62
2023/02/28 04:19:07;;;;;;;34.10;12.20;;;;;;;-2.85;73.74;102304.59;111018;1208;98409;-61
2023/02/28 04:21:35;;;;;;;32.60;11.60;;;;;;;-2.87;73.72;102305.23;110895;1206;140339;-61
2023/02/28 04:24:01;;;;;;;32.10;13.00;;;;;;;-2.89;73.67;102306.21;111038;1211;97629;-61
2023/02/28 04:26:35;;;;;;;32.90;12.30;;;;;;;-2.90;73.68;102311.59;111080;1211;139240;-61
2023/02/28 04:29:02;;;;;;;45.30;14.30;;;;;;;-2.91;73.66;102310.85;111166;1208;111504;-61
2023/02/28 04:31:28;;;;;;;39.30;13.90;;;;;;;-2.92;74.00;102312.21;111203;1205;97744;-62
2023/02/28 04:33:53;;;;;;;47.00;15.70;;;;;;;-2.92;74.26;102313.45;111000;1205;140533;-61
2023/02/28 04:36:18;;;;;;;42.90;15.60;;;;;;;-2.93;73.85;102315.49;111278;1208;97637;-61
2023/02/28 04:38:46;;;;;;;45.90;14.40;;;;;;;-2.93;73.76;102317.93;110947;1206;139439;-62
2023/02/28 04:41:15;;;;;;;45.20;14.00;;;;;;;-2.97;73.95;102316.06;111175;1209;97694;-61
2023/02/28 04:43:40;;;;;;;40.60;14.90;;;;;;;-2.98;73.71;102315.48;111074;1206;138884;-61
2023/02/28 04:46:06;;;;;;;38.50;14.20;;;;;;;-3.00;74.09;102320.50;111135;1206;98793;-61
2023/02/28 04:48:34;;;;;;;36.10;13.30;;;;;;;-3.02;73.94;102320.92;111210;1208;97590;-61
2023/02/28 04:51:13;;;;;;;45.40;15.20;;;;;;;-3.06;74.04;102324.98;111015;1208;139921;-61
2023/02/28 04:53:40;;;;;;;39.70;14.80;;;;;;;-3.10;74.22;102322.55;111073;1208;108114;-61
2023/02/28 04:56:07;;;;;;;51.20;13.70;;;;;;;-3.12;74.03;102327.17;111062;1208;139603;-61
2023/02/28 04:58:35;;;;;;;40.10;14.90;;;;;;;-3.14;74.07;102331.15;111265;1208;97607;-61
2023/02/28 05:01:04;;;;;;;45.20;14.20;;;;;;;-3.14;74.31;102328.84;111185;1205;111424;-62
2023/02/28 05:03:30;;;;;;;38.70;15.00;;;;;;;-3.14;73.76;102328.48;111101;1206;138875;-61
2023/02/28 05:05:55;;;;;;;42.30;14.60;;;;;;;-3.14;74.63;102324.48;111314;1206;97657;-62
2023/02/28 05:08:20;;;;;;;44.20;14.30;;;;;;;-3.14;74.25;102325.86;111162;1206;138995;-62
2023/02/28 05:10:46;;;;;;;49.90;14.90;;;;;;;-3.14;74.31;102331.29;111180;1205;97578;-61
2023/02/28 05:13:12;;;;;;;47.80;13.60;;;;;;;-3.15;74.57;102329.01;111139;1206;97633;-62
2023/02/28 05:15:38;;;;;;;41.20;13.90;;;;;;;-3.15;74.47;102333.54;111083;1221;139234;-62
2023/02/28 05:18:03;;;;;;;48.00;16.10;;;;;;;-3.15;74.68;102335.61;111128;1206;97575;-61
2023/02/28 05:20:28;;;;;;;40.90;15.00;;;;;;;-3.17;74.69;102337.48;111017;1208;139404;-61
2023/02/28 05:22:54;;;;;;;45.30;14.60;;;;;;;-3.19;74.33;102339.67;111230;1208;97578;-61
2023/02/28 05:25:22;;;;;;;43.00;15.30;;;;;;;-3.21;74.51;102339.41;111111;1208;97655;-61
2023/02/28 05:27:48;;;;;;;39.80;13.60;;;;;;;-3.25;74.42;102343.11;111065;1206;140253;-61
2023/02/28 05:30:15;;;;;;;50.20;14.50;;;;;;;-3.26;74.38;102338.33;111136;1206;97690;-62
2023/02/28 05:32:43;;;;;;;46.70;13.90;;;;;;;-3.27;74.36;102337.77;110995;1221;140917;-61
2023/02/28 05:35:11;;;;;;;36.90;12.70;;;;;;;-3.26;74.57;102339.20;110969;1209;97702;-61
2023/02/28 05:37:38;;;;;;;34.30;12.40;;;;;;;-3.25;74.78;102342.21;110996;1205;97793;-62
2023/02/28 05:40:11;;;;;;;31.10;12.30;;;;;;;-3.24;74.93;102346.98;110993;1222;139651;-61
2023/02/28 05:42:37;;;;;;;37.60;10.60;;;;;;;-3.22;74.77;102350.39;111147;1208;98716;-62
2023/02/28 05:45:04;;;;;;;30.70;11.10;;;;;;;-3.19;74.54;102354.88;111361;1206;139440;-62
2023/02/28 05:47:29;;;;;;;34.50;12.60;;;;;;;-3.17;74.95;102353.56;111137;1209;97697;-62
2023/02/28 05:49:54;;;;;;;37.10;11.30;;;;;;;-3.15;74.94;102352.56;111041;1208;139497;-62
2023/02/28 05:52:19;;;;;;;32.60;11.50;;;;;;;-3.15;74.88;102356.23;111138;1208;97700;-62
2023/02/28 05:54:46;;;;;;;43.30;13.50;;;;;;;-3.15;74.88;102361.33;111154;1206;98036;-61
2023/02/28 05:57:12;;;;;;;44.30;13.70;;;;;;;-3.15;74.93;102360.80;111129;1208;139268;-61
2023/02/28 05:59:39;;;;;;;37.00;12.20;;;;;;;-3.16;74.74;102362.18;111155;1205;97593;-62
2023/02/28 06:02:05;;;;;;;37.50;12.60;;;;;;;-3.17;75.06;102365.98;110965;1209;139232;-62
2023/02/28 06:04:31;;;;;;;45.40;15.30;;;;;;;-3.19;74.94;102362.05;111112;1222;97665;-62
2023/02/28 06:06:57;;;;;;;49.20;15.60;;;;;;;-3.19;74.95;102363.61;111104;1206;97602;-62
2023/02/28 06:09:22;;;;;;;47.50;15.40;;;;;;;-3.19;74.91;102367.98;110948;1208;141335;-62
2023/02/28 06:11:48;;;;;;;47.30;14.80;;;;;;;-3.19;74.93;102371.83;111114;1205;97445;-62
2023/02/28 06:14:19;;;;;;;45.30;14.00;;;;;;;-3.20;74.93;102373.73;111002;1206;139379;-62
2023/02/28 06:16:44;;;;;;;47.10;15.00;;;;;;;-3.18;75.52;102377.79;111049;1208;97671;-62
2023/02/28 06:19:10;;;;;;;47.20;16.20;;;;;;;-3.18;75.23;102376.76;111011;1208;97725;-62
2023/02/28 06:21:36;;;;;;;42.60;15.70;;;;;;;-3.18;75.27;102375.36;110952;1206;138859;-62
2023/02/28 06:24:02;;;;;;;45.70;15.10;;;;;;;-3.17;75.39;102378.02;111078;1208;97794;-62
2023/02/28 06:26:28;;;;;;;50.10;17.30;;;;;;;-3.16;75.45;102376.83;111073;1210;139787;-62
2023/02/28 06:28:54;;;;;;;45.50;15.50;;;;;;;-3.14;75.14;102378.00;110983;1210;97652;-62
2023/02/28 06:31:20;;;;;;;44.10;13.70;;;;;;;-3.12;75.28;102381.20;110935;1208;108225;-62
2023/02/28 06:33:47;;;;;;;49.70;15.30;;;;;;;-3.10;75.19;102384.42;111277;1205;139158;-63
2023/02/28 06:36:14;;;;;;;43.20;15.50;;;;;;;-3.08;75.46;102382.06;113300;1206;95899;-63
2023/02/28 06:38:40;;;;;;;44.50;15.30;;;;;;;-3.05;75.65;102383.58;113211;1204;138945;-63
2023/02/28 06:41:09;;;;;;;50.60;17.20;;;;;;;-3.02;75.57;102386.67;111877;1209;98198;-62
2023/02/28 06:43:37;;;;;;;58.60;19.40;;;;;;;-3.00;75.50;102383.27;110994;1206;97762;-62
2023/02/28 06:46:05;;;;;;;56.00;19.50;;;;;;;-2.96;75.81;102380.64;110980;1205;138968;-62
2023/02/28 06:48:31;;;;;;;61.40;18.20;;;;;;;-2.92;75.68;102381.45;111022;1206;111385;-62
2023/02/28 06:51:04;;;;;;;66.10;22.50;;;;;;;-2.87;75.97;102383.06;110908;1209;141257;-62
2023/02/28 06:53:32;;;;;;;47.90;16.10;;;;;;;-2.80;75.89;102388.05;110994;1206;105560;-61
2023/02/28 06:55:57;;;;;;;50.20;16.70;;;;;;;-2.77;76.06;102385.22;110976;1204;139410;-62
2023/02/28 06:58:23;;;;;;;39.40;13.40;;;;;;;-2.73;75.99;102384.31;111113;1208;97673;-63
2023/02/28 07:00:52;;;;;;;46.40;16.10;;;;;;;-2.70;75.82;102383.73;111108;1206;97582;-63
2023/02/28 07:03:19;;;;;;;54.60;17.50;;;;;;;-2.70;75.99;102382.35;110943;1208;139441;-63
2023/02/28 07:05:45;;;;;;;56.50;17.60;;;;;;;-2.66;76.20;102382.48;111084;1209;97696;-62
2023/02/28 07:08:11;;;;;;;60.50;19.50;;;;;;;-2.63;75.99;102381.73;110830;1206;140157;-62
2023/02/28 07:10:40;;;;;;;55.70;19.00;;;;;;;-2.59;76.06;102382.75;110939;1212;97587;-62
2023/02/28 07:13:06;;;;;;;54.90;21.10;;;;;;;-2.56;76.09;102382.14;110891;1206;108109;-63
2023/02/28 07:15:32;;;;;;;86.20;23.80;;;;;;;-2.52;76.16;102380.52;113073;1206;138858;-63
2023/02/28 07:17:57;;;;;;;71.50;23.90;;;;;;;-2.46;76.40;102383.90;112268;1206;96447;-63
2023/02/28 07:20:23;;;;;;;72.50;24.00;;;;;;;-2.40;76.24;102380.30;110680;1210;139031;-62
2023/02/28 07:22:55;;;;;;;60.90;21.50;;;;;;;-2.34;76.16;102382.60;110727;1207;98774;-63
2023/02/28 07:25:21;;;;;;;66.10;21.20;;;;;;;-2.31;76.16;102385.54;110936;1206;97872;-62
2023/02/28 07:27:47;;;;;;;58.40;20.70;;;;;;;-2.27;76.56;102385.16;110931;1205;139729;-63
2023/02/28 07:30:15;;;;;;;58.20;19.80;;;;;;;-2.22;76.48;102386.21;110834;1206;97616;-62
2023/02/28 07:32:40;;;;;;;55.60;19.20;;;;;;;-2.18;76.48;102391.77;111309;1206;140427;-63
2023/02/28 07:35:06;;;;;;;52.90;21.00;;;;;;;-2.18;76.20;102393.19;110955;1210;97600;-62
2023/02/28 07:37:36;;;;;;;64.00;21.80;;;;;;;-2.17;76.22;102399.53;110943;1210;97654;-61
2023/02/28 07:40:09;;;;;;;63.50;23.10;;;;;;;-2.15;76.33;102397.30;110871;1210;139560;-62
2023/02/28 07:42:35;;;;;;;58.30;21.30;;;;;;;-2.11;76.40;102397.29;110712;1210;99700;-63
2023/02/28 07:45:01;;;;;;;55.30;20.30;;;;;;;-2.08;76.42;102401.60;110761;1207;139563;-62
2023/02/28 07:47:29;;;;;;;51.70;19.90;;;;;;;-2.05;76.53;102403.45;111555;1209;97680;-62
2023/02/28 07:49:55;;;;;;;62.20;21.30;;;;;;;-2.02;76.54;102399.05;111043;1209;138922;-62
2023/02/28 07:52:21;;;;;;;58.10;20.80;;;;;;;-1.99;76.61;102405.61;111007;1210;97632;-62
2023/02/28 07:54:46;;;;;;;54.20;20.70;;;;;;;-1.94;76.71;102395.95;110713;1210;97667;-62
2023/02/28 07:57:11;;;;;;;51.10;19.20;;;;;;;-1.89;76.88;102399.12;110665;1207;139027;-62
2023/02/28 07:59:36;;;;;;;70.40;23.40;;;;;;;-1.85;76.67;102404.20;110958;1206;99226;-62
2023/02/28 08:02:02;;;;;;;65.90;21.90;;;;;;;-1.79;76.70;102402.27;110877;1210;140618;-62
2023/02/28 08:04:27;;;;;;;66.90;22.60;;;;;;;-1.76;76.90;102407.30;111006;1206;97966;-62
2023/02/28 08:06:53;;;;;;;55.10;20.00;;;;;;;-1.71;77.13;102405.55;110956;1210;97672;-62
2023/02/28 08:09:19;;;;;;;53.00;22.20;;;;;;;-1.65;76.94;102404.54;110943;1206;139586;-62
2023/02/28 08:11:45;;;;;;;54.10;20.50;;;;;;;-1.61;76.80;102404.50;111146;1206;97664;-62
2023/02/28 08:14:10;;;;;;;54.20;21.20;;;;;;;-1.54;77.08;102406.46;110894;1206;139805;-63
2023/02/28 08:16:35;;;;;;;50.70;21.00;;;;;;;-1.48;77.02;102404.23;110884;1209;99185;-62
2023/02/28 08:19:00;;;;;;;51.50;18.70;;;;;;;-1.42;77.02;102403.76;110924;1206;97794;-63
2023/02/28 08:21:26;;;;;;;57.00;21.30;;;;;;;-1.39;77.06;102406.81;110720;1206;140179;-62
2023/02/28 08:23:52;;;;;;;51.10;19.50;;;;;;;-1.37;77.15;102405.84;110825;1209;98144;-63
2023/02/28 08:26:18;;;;;;;47.50;19.30;;;;;;;-1.31;76.97;102403.41;110741;1206;139336;-63
2023/02/28 08:28:44;;;;;;;49.80;18.60;;;;;;;-1.23;77.03;102407.52;110793;1209;97724;-61
2023/02/28 08:31:13;;;;;;;54.60;19.90;;;;;;;-1.19;77.15;102402.59;110702;1210;97927;-61
2023/02/28 08:33:39;;;;;;;55.40;18.90;;;;;;;-1.12;76.96;102406.83;110812;1210;139248;-62
2023/02/28 08:36:06;;;;;;;57.20;19.60;;;;;;;-1.07;77.02;102404.22;111048;1208;97674;-62
2023/02/28 08:38:31;;;;;;;51.30;19.70;;;;;;;-1.01;77.07;102400.38;110915;1205;140000;-62
2023/02/28 08:40:58;;;;;;;47.20;17.10;;;;;;;-0.94;77.16;102399.70;111149;1208;97636;-61
2023/02/28 08:43:24;;;;;;;46.10;18.70;;;;;;;-0.86;77.24;102401.16;111085;1208;98080;-61
2023/02/28 08:45:54;;;;;;;48.10;19.40;;;;;;;-0.78;77.15;102401.78;110914;1208;138577;-62
2023/02/28 08:48:19;;;;;;;47.00;17.30;;;;;;;-0.71;77.30;102394.97;111069;1208;99157;-63
2023/02/28 08:50:45;;;;;;;55.60;18.90;;;;;;;-0.65;77.31;102395.52;110807;1208;140896;-61
2023/02/28 08:53:10;;;;;;;38.00;16.90;;;;;;;-0.56;77.30;102396.99;111162;1205;97636;-61
2023/02/28 08:55:35;;;;;;;46.10;17.00;;;;;;;-0.48;77.48;102395.33;111101;1208;99071;-62
2023/02/28 08:58:01;;;;;;;44.50;17.60;;;;;;;-0.42;77.21;102399.39;111069;1205;138482;-61
2023/02/28 09:00:26;;;;;;;48.30;16.60;;;;;;;-0.37;77.30;102397.77;111053;1205;97772;-62
2023/02/28 09:02:52;;;;;;;38.80;16.70;;;;;;;-0.30;77.25;102396.56;111032;1205;140404;-64
2023/02/28 09:05:17;;;;;;;53.10;18.40;;;;;;;-0.24;77.26;102397.10;111089;1209;97752;-62
2023/02/28 09:07:44;;;;;;;45.70;16.70;;;;;;;-0.19;77.21;102392.11;110803;1206;139010;-61
2023/02/28 09:10:10;;;;;;;51.90;20.50;;;;;;;-0.16;77.25;102387.84;111040;1208;98032;-62
2023/02/28 09:12:35;;;;;;;41.20;16.00;;;;;;;-0.11;77.29;102384.28;111121;1206;97549;-63
2023/02/28 09:15:01;;;;;;;39.10;15.40;;;;;;;-0.08;77.27;102380.14;110923;1205;139245;-63
2023/02/28 09:17:27;;;;;;;48.90;17.30;;;;;;;-0.06;77.18;102383.54;111080;1221;99032;-62
2023/02/28 09:19:52;;;;;;;39.00;16.70;;;;;;;-0.01;77.26;102387.53;110938;1208;140811;-62
2023/02/28 09:22:17;;;;;;;50.80;18.20;;;;;;;0.07;77.35;102383.32;111045;1205;97655;-62
2023/02/28 09:24:44;;;;;;;46.00;17.60;;;;;;;0.13;77.23;102380.52;110985;1209;97802;-61
2023/02/28 09:27:09;;;;;;;43.50;17.40;;;;;;;0.17;77.12;102380.61;110981;1206;139466;-61
2023/02/28 09:29:35;;;;;;;42.70;16.80;;;;;;;0.21;77.11;102386.71;110958;1205;97241;-62
2023/02/28 09:32:00;;;;;;;50.10;17.40;;;;;;;0.28;77.13;102382.85;110744;1208;140409;-62
2023/02/28 09:34:27;;;;;;;42.40;16.80;;;;;;;0.35;77.07;102383.73;111150;1206;97617;-62
2023/02/28 09:36:54;;;;;;;38.10;15.70;;;;;;;0.42;77.20;102387.62;110946;1221;97635;-62
2023/02/28 09:39:21;;;;;;;37.10;14.10;;;;;;;0.52;77.09;102384.17;110828;1208;140030;-62
2023/02/28 09:41:51;;;;;;;28.30;11.80;;;;;;;0.60;77.07;102383.69;111060;1206;97552;-62
2023/02/28 09:44:39;;;;;;;37.40;13.40;;;;;;;0.66;76.84;102387.70;110931;1206;138064;-62
2023/02/28 09:47:16;;;;;;;38.50;13.40;;;;;;;0.72;76.84;102393.12;111075;1206;107831;-62
2023/02/28 09:49:46;;;;;;;37.80;14.70;;;;;;;0.79;76.74;102395.60;110776;1208;140283;-61
2023/02/28 09:52:19;;;;;;;28.20;11.90;;;;;;;0.85;76.79;102397.67;111163;1209;97677;-62
2023/02/28 09:54:44;;;;;;;31.80;12.80;;;;;;;0.90;76.73;102400.09;111102;1208;111533;-61
2023/02/28 09:57:22;;;;;;;36.50;13.10;;;;;;;0.92;76.62;102400.31;110942;1208;139678;-61
2023/02/28 10:00:24;;;;;;;41.90;14.20;;;;;;;0.95;76.49;102399.69;110944;1208;107777;-62
2023/02/28 10:03:06;;;;;;;38.50;13.50;;;;;;;0.99;76.47;102403.12;110893;1208;139208;-62
2023/02/28 10:05:40;;;;;;;42.80;14.10;;;;;;;1.03;76.49;102403.02;111063;1206;99376;-62
2023/02/28 10:08:18;;;;;;;34.80;13.60;;;;;;;1.07;76.44;102404.01;110920;1206;138751;-62
2023/02/28 10:10:49;;;;;;;30.70;12.30;;;;;;;1.12;76.35;102402.89;110990;1209;100121;-66
2023/02/28 10:14:01;;;;;;;32.00;12.50;;;;;;;1.16;76.20;102396.65;111053;1206;106542;-66
2023/02/28 10:16:53;;;;;;;29.10;12.30;;;;;;;1.25;76.25;102395.11;110877;1228;97676;-65
2023/02/28 10:20:07;;;;;;;32.30;12.20;;;;;;;1.35;76.22;102399.73;110865;1210;97800;-65
2023/02/28 10:22:51;;;;;;;32.40;12.40;;;;;;;1.45;76.22;102395.55;110977;1206;110761;-65
2023/02/28 10:25:24;;;;;;;28.90;10.80;;;;;;;1.53;76.03;102391.86;110947;1206;99845;-64
2023/02/28 10:27:53;;;;;;;27.60;10.20;;;;;;;1.60;76.12;102387.95;110741;1209;138341;-65
2023/02/28 10:30:18;;;;;;;25.40;9.20;;;;;;;1.70;76.10;102391.86;110966;1207;99076;-66
2023/02/28 10:32:50;;;;;;;21.20;8.80;;;;;;;1.78;76.09;102388.67;110744;1206;139525;-65
2023/02/28 10:35:22;;;;;;;25.70;8.60;;;;;;;1.85;75.74;102383.90;111044;1208;111040;-65
2023/02/28 10:37:56;;;;;;;24.70;9.60;;;;;;;1.95;75.78;102383.55;110828;1210;100026;-65
2023/02/28 10:40:22;;;;;;;20.20;8.60;;;;;;;2.07;75.67;102382.73;110904;1210;107483;-65
2023/02/28 10:43:02;;;;;;;23.60;8.20;;;;;;;2.18;75.88;102378.54;110847;1209;97660;-65
2023/02/28 10:45:38;;;;;;;15.70;7.30;;;;;;;2.22;75.38;102378.44;111037;1208;138575;-65
2023/02/28 10:48:29;;;;;;;19.00;8.40;;;;;;;2.18;75.34;102375.72;111001;1206;111553;-65
2023/02/28 10:50:57;;;;;;;21.00;8.60;;;;;;;2.18;75.06;102373.95;110915;1206;138031;-65
2023/02/28 10:53:27;;;;;;;20.40;8.40;;;;;;;2.27;75.35;102369.17;111163;1208;107790;-65
2023/02/28 10:56:08;;;;;;;22.40;9.50;;;;;;;2.34;74.99;102362.41;111013;1222;97552;-65
2023/02/28 10:58:58;;;;;;;21.90;9.10;;;;;;;2.43;75.01;102359.58;110755;1210;97687;-65
2023/02/28 11:01:48;;;;;;;20.50;7.90;;;;;;;2.48;74.86;102361.27;110867;1213;111374;-65
2023/02/28 11:04:39;;;;;;;16.90;7.20;;;;;;;2.38;74.20;102353.85;110869;1206;138351;-65
2023/02/28 11:07:17;;;;;;;;;;;;;;;2.42;74.38;102350.73;111020;1206;106865;-65
2023/02/28 11:09:49;;;;;;;21.10;7.70;;;;;;;2.42;73.97;102346.34;110755;1208;124742;-66
2023/02/28 11:12:26;;;;;;;;;;;;;;;2.50;73.91;102347.36;111109;1211;97777;-66